Date,TemperatureHighF,TemperatureAvgF,TemperatureLowF,DewpointHighF,DewpointAvgF,DewpointLowF,HumidityHigh,HumidityAvg,HumidityLow,PressureMaxIn,PressureMinIn,WindSpeedMaxMPH,WindSpeedAvgMPH,GustSpeedMaxMPH,PrecipitationSumIn
2013-9-1,85.9,73.2,65.1,69.0,59.2,42.1,100,67,24,28.96,28.82,14,6,0,0.00
2013-9-2,70.7,62.1,51.0,58.8,50.2,39.8,99,69,35,29.13,28.95,11,4,0,0.00
2013-9-3,77.9,60.0,43.3,52.6,44.8,35.5,100,65,27,29.20,29.09,11,2,0,0.00
2013-9-4,90.1,68.0,48.8,63.1,51.4,43.0,100,63,25,29.22,29.12,13,2,0,0.00
2013-9-5,79.2,67.8,61.0,63.6,54.4,43.2,94,66,33,29.36,29.22,15,5,0,0.00
2013-9-6,88.4,71.1,57.2,60.6,49.1,38.9,72,48,27,29.35,29.04,15,3,0,0.00
2013-9-7,92.5,78.8,67.2,67.2,57.4,49.7,77,51,27,29.08,28.97,14,3,0,0.00
2013-9-8,72.2,67.8,62.2,65.0,58.5,52.9,83,73,57,29.18,29.03,15,6,0,0.00
2013-9-9,91.9,77.2,64.1,67.3,62.5,55.6,98,64,36,29.05,28.84,16,5,0,0.00
2013-9-10,94.0,82.4,74.5,62.4,54.5,47.1,61,40,23,29.08,28.89,17,7,0,0.00
2013-9-11,82.1,73.0,65.7,67.6,60.5,51.7,100,67,36,29.17,29.05,15,4,0,0.31
2013-9-12,74.0,65.1,56.2,58.6,43.3,35.5,100,48,29,29.27,29.08,15,7,0,0.00
2013-9-13,70.2,54.8,43.6,45.0,34.8,14.2,100,55,14,29.35,29.23,11,2,0,0.00
2013-9-14,71.7,58.4,38.3,46.9,37.9,30.8,100,53,24,29.27,29.05,15,4,0,0.00
2013-9-15,64.0,57.5,53.3,57.2,52.9,45.9,100,86,54,29.35,29.03,12,4,0,0.71
2013-9-16,66.5,52.6,43.6,53.7,40.5,26.4,100,69,25,29.49,29.34,11,2,0,0.00
2013-9-17,65.7,49.9,38.5,56.7,45.6,38.5,100,87,46,29.45,29.14,14,3,0,0.04
2013-9-18,79.0,68.1,59.7,67.3,57.7,52.8,89,71,44,29.15,28.93,14,7,0,0.00
2013-9-19,84.6,72.0,67.1,71.0,67.1,58.6,100,87,46,28.95,28.78,35,5,0,0.43
2013-9-20,68.1,65.1,60.8,68.1,61.7,46.7,100,90,61,28.91,28.81,13,4,0,0.43
2013-9-23,68.5,59.8,43.2,50.7,44.4,39.3,100,59,37,29.20,29.09,14,6,0,0.00
2013-9-24,71.6,56.5,42.0,51.7,43.9,36.1,100,69,29,29.14,29.03,15,3,0,0.00
2013-9-25,69.2,50.5,43.2,54.0,46.8,40.7,100,90,38,29.13,29.03,13,1,0,0.00
2013-9-26,75.8,57.1,41.6,53.6,46.3,40.0,100,74,29,29.17,29.07,13,3,0,0.00
2013-9-27,80.5,65.3,49.6,52.8,44.9,35.1,97,54,21,29.21,29.08,17,6,0,0.00
2013-9-28,77.6,63.5,51.1,67.2,51.4,43.9,100,68,37,29.10,28.88,27,9,0,0.16
2013-9-29,70.8,55.5,41.1,52.0,41.9,25.7,100,68,22,29.15,29.04,13,2,0,0.04
2013-9-30,72.8,60.2,46.1,49.0,40.2,32.1,94,52,25,29.07,28.86,21,6,0,0.00